sensor_id;sensor_type;location;lat;lon;timestamp;temperature;humidity
664;DHT22;314;48.770;9.246;2022-09-09T00:01:32;15.80;94.40
664;DHT22;314;48.770;9.246;2022-09-09T00:06:43;15.70;95.10
664;DHT22;314;48.770;9.246;2022-09-09T00:09:25;15.60;95.10
664;DHT22;314;48.770;9.246;2022-09-09T00:11:57;15.60;95.10
664;DHT22;314;48.770;9.246;2022-09-09T00:17:18;15.60;94.80
664;DHT22;314;48.770;9.246;2022-09-09T00:20:02;15.70;94.40
664;DHT22;314;48.770;9.246;2022-09-09T00:22:32;15.60;94.50
664;DHT22;314;48.770;9.246;2022-09-09T00:25:12;15.70;94.50
664;DHT22;314;48.770;9.246;2022-09-09T00:27:48;15.60;94.90
664;DHT22;314;48.770;9.246;2022-09-09T00:30:17;15.60;94.60
664;DHT22;314;48.770;9.246;2022-09-09T00:32:48;15.70;94.60
664;DHT22;314;48.770;9.246;2022-09-09T00:35:32;15.70;94.60
664;DHT22;314;48.770;9.246;2022-09-09T00:41:14;15.70;94.90
664;DHT22;314;48.770;9.246;2022-09-09T00:43:52;15.80;94.60
664;DHT22;314;48.770;9.246;2022-09-09T00:46:53;15.80;94.50
664;DHT22;314;48.770;9.246;2022-09-09T00:49:55;15.80;94.60
664;DHT22;314;48.770;9.246;2022-09-09T00:52:32;15.80;94.50
664;DHT22;314;48.770;9.246;2022-09-09T00:57:53;15.90;94.80
664;DHT22;314;48.770;9.246;2022-09-09T01:00:21;15.90;94.70
664;DHT22;314;48.770;9.246;2022-09-09T01:10:48;16.00;94.70
664;DHT22;314;48.770;9.246;2022-09-09T01:13:30;16.00;94.70
664;DHT22;314;48.770;9.246;2022-09-09T01:16:03;16.00;94.50
664;DHT22;314;48.770;9.246;2022-09-09T01:18:37;16.00;94.50
664;DHT22;314;48.770;9.246;2022-09-09T01:21:22;15.90;94.60
664;DHT22;314;48.770;9.246;2022-09-09T01:26:34;15.80;95.40
664;DHT22;314;48.770;9.246;2022-09-09T01:29:01;15.90;95.30
664;DHT22;314;48.770;9.246;2022-09-09T01:31:32;15.90;95.50
664;DHT22;314;48.770;9.246;2022-09-09T01:34:00;15.90;95.70
664;DHT22;314;48.770;9.246;2022-09-09T01:36:43;15.90;95.30
664;DHT22;314;48.770;9.246;2022-09-09T01:39:10;15.90;95.10
664;DHT22;314;48.770;9.246;2022-09-09T01:41:37;15.90;95.10
664;DHT22;314;48.770;9.246;2022-09-09T01:44:04;15.90;95.20
664;DHT22;314;48.770;9.246;2022-09-09T01:46:30;15.90;94.90
664;DHT22;314;48.770;9.246;2022-09-09T01:48:57;15.90;94.80
664;DHT22;314;48.770;9.246;2022-09-09T01:51:24;15.90;94.60
664;DHT22;314;48.770;9.246;2022-09-09T01:53:50;15.90;94.40
664;DHT22;314;48.770;9.246;2022-09-09T02:05:32;16.00;94.50
664;DHT22;314;48.770;9.246;2022-09-09T02:10:59;15.80;95.00
664;DHT22;314;48.770;9.246;2022-09-09T02:13:29;15.90;95.00
664;DHT22;314;48.770;9.246;2022-09-09T02:16:08;15.80;94.60
664;DHT22;314;48.770;9.246;2022-09-09T02:21:06;15.90;94.10
664;DHT22;314;48.770;9.246;2022-09-09T02:23:34;16.00;93.70
664;DHT22;314;48.770;9.246;2022-09-09T02:26:00;15.90;93.50
664;DHT22;314;48.770;9.246;2022-09-09T02:28:29;15.90;93.40
664;DHT22;314;48.770;9.246;2022-09-09T02:30:56;15.90;93.30
664;DHT22;314;48.770;9.246;2022-09-09T02:33:27;15.90;93.00
664;DHT22;314;48.770;9.246;2022-09-09T02:35:54;15.90;92.90
664;DHT22;314;48.770;9.246;2022-09-09T02:38:24;15.90;93.10
664;DHT22;314;48.770;9.246;2022-09-09T02:40:52;15.90;93.30
664;DHT22;314;48.770;9.246;2022-09-09T02:43:17;15.80;93.50
664;DHT22;314;48.770;9.246;2022-09-09T02:48:51;15.80;93.70
664;DHT22;314;48.770;9.246;2022-09-09T02:54:44;15.70;93.80
664;DHT22;314;48.770;9.246;2022-09-09T02:57:17;15.70;93.90
664;DHT22;314;48.770;9.246;2022-09-09T02:59:45;15.60;94.20
664;DHT22;314;48.770;9.246;2022-09-09T03:02:12;15.60;94.20
664;DHT22;314;48.770;9.246;2022-09-09T03:04:39;15.60;94.70
664;DHT22;314;48.770;9.246;2022-09-09T03:07:05;15.40;95.20
664;DHT22;314;48.770;9.246;2022-09-09T03:09:31;15.40;95.40
664;DHT22;314;48.770;9.246;2022-09-09T03:11:58;15.40;95.50
664;DHT22;314;48.770;9.246;2022-09-09T03:14:24;15.40;95.30
664;DHT22;314;48.770;9.246;2022-09-09T03:16:51;15.50;95.40
664;DHT22;314;48.770;9.246;2022-09-09T03:19:17;15.40;95.60
664;DHT22;314;48.770;9.246;2022-09-09T03:21:45;15.40;95.70
664;DHT22;314;48.770;9.246;2022-09-09T03:24:11;15.40;95.90
664;DHT22;314;48.770;9.246;2022-09-09T03:26:37;15.40;95.80
664;DHT22;314;48.770;9.246;2022-09-09T03:29:04;15.40;95.70
664;DHT22;314;48.770;9.246;2022-09-09T03:31:32;15.50;95.40
664;DHT22;314;48.770;9.246;2022-09-09T03:33:58;15.50;95.40
664;DHT22;314;48.770;9.246;2022-09-09T03:36:25;15.50;95.70
664;DHT22;314;48.770;9.246;2022-09-09T03:38:52;15.40;96.30
664;DHT22;314;48.770;9.246;2022-09-09T03:41:19;15.30;96.80
664;DHT22;314;48.770;9.246;2022-09-09T03:43:49;15.20;97.20
664;DHT22;314;48.770;9.246;2022-09-09T03:46:16;15.20;97.30
664;DHT22;314;48.770;9.246;2022-09-09T03:48:41;15.20;97.60
664;DHT22;314;48.770;9.246;2022-09-09T03:51:10;15.20;97.70
664;DHT22;314;48.770;9.246;2022-09-09T03:53:36;15.10;98.20
664;DHT22;314;48.770;9.246;2022-09-09T03:56:04;15.00;98.50
664;DHT22;314;48.770;9.246;2022-09-09T03:58:33;15.00;98.50
664;DHT22;314;48.770;9.246;2022-09-09T04:01:04;14.90;98.70
664;DHT22;314;48.770;9.246;2022-09-09T04:03:31;15.00;98.60
664;DHT22;314;48.770;9.246;2022-09-09T04:05:59;15.00;98.40
664;DHT22;314;48.770;9.246;2022-09-09T04:08:25;15.00;98.50
664;DHT22;314;48.770;9.246;2022-09-09T04:10:51;15.10;98.00
664;DHT22;314;48.770;9.246;2022-09-09T04:13:18;15.10;97.90
664;DHT22;314;48.770;9.246;2022-09-09T04:15:50;15.10;97.90
664;DHT22;314;48.770;9.246;2022-09-09T04:18:16;15.10;97.80
664;DHT22;314;48.770;9.246;2022-09-09T04:20:42;15.00;97.70
664;DHT22;314;48.770;9.246;2022-09-09T04:23:09;15.00;97.90
664;DHT22;314;48.770;9.246;2022-09-09T04:25:34;15.00;98.20
664;DHT22;314;48.770;9.246;2022-09-09T04:28:00;14.90;98.70
664;DHT22;314;48.770;9.246;2022-09-09T04:30:26;14.90;98.80
664;DHT22;314;48.770;9.246;2022-09-09T04:32:53;14.90;98.90
664;DHT22;314;48.770;9.246;2022-09-09T04:35:19;14.90;98.80
664;DHT22;314;48.770;9.246;2022-09-09T04:37:45;15.00;98.60
664;DHT22;314;48.770;9.246;2022-09-09T04:40:11;15.00;98.60
664;DHT22;314;48.770;9.246;2022-09-09T04:42:37;15.00;98.40
664;DHT22;314;48.770;9.246;2022-09-09T04:45:04;15.00;98.20
664;DHT22;314;48.770;9.246;2022-09-09T04:47:30;15.10;98.00
664;DHT22;314;48.770;9.246;2022-09-09T04:50:00;15.10;97.90
664;DHT22;314;48.770;9.246;2022-09-09T04:52:26;15.20;97.70
664;DHT22;314;48.770;9.246;2022-09-09T04:54:52;15.20;97.60
664;DHT22;314;48.770;9.246;2022-09-09T04:57:19;15.20;98.10
664;DHT22;314;48.770;9.246;2022-09-09T04:59:45;15.20;98.30
664;DHT22;314;48.770;9.246;2022-09-09T05:02:11;15.10;98.90
664;DHT22;314;48.770;9.246;2022-09-09T05:04:37;15.10;98.80
664;DHT22;314;48.770;9.246;2022-09-09T05:07:03;15.10;99.10
664;DHT22;314;48.770;9.246;2022-09-09T05:09:29;15.10;99.00
664;DHT22;314;48.770;9.246;2022-09-09T05:11:55;15.00;99.10
664;DHT22;314;48.770;9.246;2022-09-09T05:14:21;15.10;99.10
664;DHT22;314;48.770;9.246;2022-09-09T05:16:48;15.10;98.90
664;DHT22;314;48.770;9.246;2022-09-09T05:19:15;15.10;99.10
664;DHT22;314;48.770;9.246;2022-09-09T05:21:41;15.10;99.10
664;DHT22;314;48.770;9.246;2022-09-09T05:24:07;15.00;99.10
664;DHT22;314;48.770;9.246;2022-09-09T05:26:33;15.10;99.10
664;DHT22;314;48.770;9.246;2022-09-09T05:28:59;15.20;98.90
664;DHT22;314;48.770;9.246;2022-09-09T05:31:25;15.30;98.60
664;DHT22;314;48.770;9.246;2022-09-09T05:33:53;15.30;98.50
664;DHT22;314;48.770;9.246;2022-09-09T05:36:21;15.30;98.30
664;DHT22;314;48.770;9.246;2022-09-09T05:38:47;15.30;98.40
664;DHT22;314;48.770;9.246;2022-09-09T05:41:15;15.40;98.20
664;DHT22;314;48.770;9.246;2022-09-09T05:43:41;15.50;98.20
664;DHT22;314;48.770;9.246;2022-09-09T05:46:27;15.60;97.40
664;DHT22;314;48.770;9.246;2022-09-09T05:48:53;15.70;97.20
664;DHT22;314;48.770;9.246;2022-09-09T05:51:21;15.80;97.00
664;DHT22;314;48.770;9.246;2022-09-09T05:53:48;15.80;97.00
664;DHT22;314;48.770;9.246;2022-09-09T05:56:15;15.80;96.90
664;DHT22;314;48.770;9.246;2022-09-09T05:58:46;15.90;96.20
664;DHT22;314;48.770;9.246;2022-09-09T06:01:18;15.90;95.70
664;DHT22;314;48.770;9.246;2022-09-09T06:03:46;16.00;95.90
664;DHT22;314;48.770;9.246;2022-09-09T06:06:15;16.00;95.60
664;DHT22;314;48.770;9.246;2022-09-09T06:08:44;16.10;95.60
664;DHT22;314;48.770;9.246;2022-09-09T06:11:16;16.10;95.50
664;DHT22;314;48.770;9.246;2022-09-09T06:13:43;16.20;95.50
664;DHT22;314;48.770;9.246;2022-09-09T06:16:16;16.20;95.40
664;DHT22;314;48.770;9.246;2022-09-09T06:18:44;16.20;95.50
664;DHT22;314;48.770;9.246;2022-09-09T06:21:22;16.30;95.50
664;DHT22;314;48.770;9.246;2022-09-09T06:23:49;16.30;95.30
664;DHT22;314;48.770;9.246;2022-09-09T06:26:18;16.40;94.70
664;DHT22;314;48.770;9.246;2022-09-09T06:28:45;16.60;94.60
664;DHT22;314;48.770;9.246;2022-09-09T06:31:12;16.60;94.30
664;DHT22;314;48.770;9.246;2022-09-09T06:33:40;16.60;94.10
664;DHT22;314;48.770;9.246;2022-09-09T06:36:11;16.70;94.20
664;DHT22;314;48.770;9.246;2022-09-09T06:38:38;16.80;93.60
664;DHT22;314;48.770;9.246;2022-09-09T06:41:04;16.80;93.10
664;DHT22;314;48.770;9.246;2022-09-09T06:43:31;16.80;93.50
664;DHT22;314;48.770;9.246;2022-09-09T06:45:59;16.90;93.10
664;DHT22;314;48.770;9.246;2022-09-09T06:48:26;17.00;93.00
664;DHT22;314;48.770;9.246;2022-09-09T06:51:02;17.10;93.00
664;DHT22;314;48.770;9.246;2022-09-09T06:53:28;17.10;92.90
664;DHT22;314;48.770;9.246;2022-09-09T06:55:54;17.20;92.20
664;DHT22;314;48.770;9.246;2022-09-09T06:58:20;17.30;92.00
664;DHT22;314;48.770;9.246;2022-09-09T07:00:49;17.40;91.80
664;DHT22;314;48.770;9.246;2022-09-09T07:03:15;17.50;91.80
664;DHT22;314;48.770;9.246;2022-09-09T07:05:41;17.60;91.50
664;DHT22;314;48.770;9.246;2022-09-09T07:08:06;17.70;91.80
664;DHT22;314;48.770;9.246;2022-09-09T07:10:32;17.90;91.60
664;DHT22;314;48.770;9.246;2022-09-09T07:12:59;18.00;90.80
664;DHT22;314;48.770;9.246;2022-09-09T07:15:25;18.00;90.80
664;DHT22;314;48.770;9.246;2022-09-09T07:17:51;18.20;89.80
664;DHT22;314;48.770;9.246;2022-09-09T07:20:18;18.20;89.90
664;DHT22;314;48.770;9.246;2022-09-09T07:22:45;18.30;89.80
664;DHT22;314;48.770;9.246;2022-09-09T07:25:11;18.40;89.90
664;DHT22;314;48.770;9.246;2022-09-09T07:27:37;18.50;89.60
664;DHT22;314;48.770;9.246;2022-09-09T07:30:03;18.60;88.00
664;DHT22;314;48.770;9.246;2022-09-09T07:32:30;18.70;88.10
664;DHT22;314;48.770;9.246;2022-09-09T07:34:56;18.80;88.80
664;DHT22;314;48.770;9.246;2022-09-09T07:37:23;18.90;87.80
664;DHT22;314;48.770;9.246;2022-09-09T07:39:49;19.00;87.10
664;DHT22;314;48.770;9.246;2022-09-09T07:42:16;19.10;87.30
664;DHT22;314;48.770;9.246;2022-09-09T07:44:42;19.20;86.70
664;DHT22;314;48.770;9.246;2022-09-09T07:47:08;19.30;86.90
664;DHT22;314;48.770;9.246;2022-09-09T07:49:34;19.30;85.80
664;DHT22;314;48.770;9.246;2022-09-09T07:52:00;19.40;85.50
664;DHT22;314;48.770;9.246;2022-09-09T07:54:25;19.60;85.60
664;DHT22;314;48.770;9.246;2022-09-09T07:56:52;19.80;84.90
664;DHT22;314;48.770;9.246;2022-09-09T07:59:18;19.80;84.40
664;DHT22;314;48.770;9.246;2022-09-09T08:01:49;19.90;83.50
664;DHT22;314;48.770;9.246;2022-09-09T08:04:19;19.90;84.40
664;DHT22;314;48.770;9.246;2022-09-09T08:06:48;19.80;84.60
664;DHT22;314;48.770;9.246;2022-09-09T08:09:15;19.80;84.60
664;DHT22;314;48.770;9.246;2022-09-09T08:11:41;19.90;83.90
664;DHT22;314;48.770;9.246;2022-09-09T08:14:08;20.00;83.40
664;DHT22;314;48.770;9.246;2022-09-09T08:16:38;20.10;84.10
664;DHT22;314;48.770;9.246;2022-09-09T08:19:05;20.10;82.80
664;DHT22;314;48.770;9.246;2022-09-09T08:21:35;20.10;82.80
664;DHT22;314;48.770;9.246;2022-09-09T08:24:03;20.20;83.70
664;DHT22;314;48.770;9.246;2022-09-09T08:26:33;20.20;82.00
664;DHT22;314;48.770;9.246;2022-09-09T08:29:01;20.40;79.90
664;DHT22;314;48.770;9.246;2022-09-09T08:31:30;20.50;79.80
664;DHT22;314;48.770;9.246;2022-09-09T08:33:57;20.60;79.40
664;DHT22;314;48.770;9.246;2022-09-09T08:36:26;20.70;79.90
664;DHT22;314;48.770;9.246;2022-09-09T08:38:54;20.80;79.50
664;DHT22;314;48.770;9.246;2022-09-09T08:58:27;21.90;74.60
664;DHT22;314;48.770;9.246;2022-09-09T09:04:12;22.30;72.80
664;DHT22;314;48.770;9.246;2022-09-09T09:07:07;22.40;72.80
664;DHT22;314;48.770;9.246;2022-09-09T09:12:22;22.70;71.20
664;DHT22;314;48.770;9.246;2022-09-09T09:14:48;22.90;68.50
664;DHT22;314;48.770;9.246;2022-09-09T09:17:21;23.10;68.70
664;DHT22;314;48.770;9.246;2022-09-09T09:19:48;23.30;66.90
664;DHT22;314;48.770;9.246;2022-09-09T09:25:16;23.40;63.30
664;DHT22;314;48.770;9.246;2022-09-09T09:27:49;23.50;62.40
664;DHT22;314;48.770;9.246;2022-09-09T09:30:25;23.50;64.10
664;DHT22;314;48.770;9.246;2022-09-09T09:35:45;23.10;64.40
664;DHT22;314;48.770;9.246;2022-09-09T09:38:22;22.60;63.70
664;DHT22;314;48.770;9.246;2022-09-09T09:40:54;21.90;68.90
664;DHT22;314;48.770;9.246;2022-09-09T09:43:29;21.10;77.40
664;DHT22;314;48.770;9.246;2022-09-09T09:45:59;20.90;83.10
664;DHT22;314;48.770;9.246;2022-09-09T09:48:27;21.00;82.30
664;DHT22;314;48.770;9.246;2022-09-09T09:50:57;21.20;80.50
664;DHT22;314;48.770;9.246;2022-09-09T09:53:26;21.40;85.90
664;DHT22;314;48.770;9.246;2022-09-09T09:56:05;21.60;84.80
664;DHT22;314;48.770;9.246;2022-09-09T09:58:52;21.60;80.50
664;DHT22;314;48.770;9.246;2022-09-09T10:01:30;21.70;84.90
664;DHT22;314;48.770;9.246;2022-09-09T10:04:13;21.80;79.20
664;DHT22;314;48.770;9.246;2022-09-09T10:06:39;22.00;76.40
664;DHT22;314;48.770;9.246;2022-09-09T10:09:25;22.00;79.40
664;DHT22;314;48.770;9.246;2022-09-09T10:12:15;22.10;78.70
664;DHT22;314;48.770;9.246;2022-09-09T10:15:09;22.10;77.10
664;DHT22;314;48.770;9.246;2022-09-09T10:20:45;22.30;76.20
664;DHT22;314;48.770;9.246;2022-09-09T10:31:27;22.80;72.80
664;DHT22;314;48.770;9.246;2022-09-09T10:36:26;23.20;76.00
664;DHT22;314;48.770;9.246;2022-09-09T10:39:15;23.50;70.20
664;DHT22;314;48.770;9.246;2022-09-09T10:42:05;23.60;68.80
664;DHT22;314;48.770;9.246;2022-09-09T10:55:18;24.40;62.80
664;DHT22;314;48.770;9.246;2022-09-09T10:57:51;24.40;63.70
664;DHT22;314;48.770;9.246;2022-09-09T11:00:22;24.50;65.90
664;DHT22;314;48.770;9.246;2022-09-09T11:03:01;24.50;63.50
664;DHT22;314;48.770;9.246;2022-09-09T11:05:41;24.30;63.50
664;DHT22;314;48.770;9.246;2022-09-09T11:08:12;24.40;65.20
664;DHT22;314;48.770;9.246;2022-09-09T11:10:48;24.60;62.40
664;DHT22;314;48.770;9.246;2022-09-09T11:13:38;25.00;63.30
664;DHT22;314;48.770;9.246;2022-09-09T11:18:42;25.30;61.40
664;DHT22;314;48.770;9.246;2022-09-09T11:21:19;25.20;61.70
664;DHT22;314;48.770;9.246;2022-09-09T11:24:01;25.10;63.10
664;DHT22;314;48.770;9.246;2022-09-09T11:26:40;24.80;62.10
664;DHT22;314;48.770;9.246;2022-09-09T11:40:35;22.90;58.40
664;DHT22;314;48.770;9.246;2022-09-09T11:43:15;22.50;60.30
664;DHT22;314;48.770;9.246;2022-09-09T11:45:51;22.40;61.60
664;DHT22;314;48.770;9.246;2022-09-09T11:48:35;22.30;65.20
664;DHT22;314;48.770;9.246;2022-09-09T11:51:06;22.30;62.70
664;DHT22;314;48.770;9.246;2022-09-09T11:53:34;22.10;61.70
664;DHT22;314;48.770;9.246;2022-09-09T11:56:06;21.90;63.30
664;DHT22;314;48.770;9.246;2022-09-09T11:59:05;21.90;63.80
664;DHT22;314;48.770;9.246;2022-09-09T12:01:42;21.90;62.30
664;DHT22;314;48.770;9.246;2022-09-09T12:04:22;22.10;62.40
664;DHT22;314;48.770;9.246;2022-09-09T12:06:52;22.20;61.60
664;DHT22;314;48.770;9.246;2022-09-09T12:09:22;22.40;61.70
664;DHT22;314;48.770;9.246;2022-09-09T12:11:50;22.60;60.90
664;DHT22;314;48.770;9.246;2022-09-09T12:14:43;23.00;61.20
664;DHT22;314;48.770;9.246;2022-09-09T12:19:42;23.50;55.90
664;DHT22;314;48.770;9.246;2022-09-09T12:28:15;22.90;57.00
664;DHT22;314;48.770;9.246;2022-09-09T12:33:17;22.80;57.70
664;DHT22;314;48.770;9.246;2022-09-09T12:35:45;23.10;59.30
664;DHT22;314;48.770;9.246;2022-09-09T12:38:28;23.60;59.20
664;DHT22;314;48.770;9.246;2022-09-09T12:40:58;24.20;56.60
664;DHT22;314;48.770;9.246;2022-09-09T12:43:25;24.70;54.20
664;DHT22;314;48.770;9.246;2022-09-09T12:45:55;25.00;53.60
664;DHT22;314;48.770;9.246;2022-09-09T12:48:31;25.30;50.10
664;DHT22;314;48.770;9.246;2022-09-09T12:50:57;25.50;49.20
664;DHT22;314;48.770;9.246;2022-09-09T12:53:29;25.30;48.20
664;DHT22;314;48.770;9.246;2022-09-09T12:56:06;25.30;51.90
664;DHT22;314;48.770;9.246;2022-09-09T12:58:38;25.50;49.20
664;DHT22;314;48.770;9.246;2022-09-09T13:01:06;25.60;50.70
664;DHT22;314;48.770;9.246;2022-09-09T13:03:43;25.50;50.50
664;DHT22;314;48.770;9.246;2022-09-09T13:06:13;25.40;51.60
664;DHT22;314;48.770;9.246;2022-09-09T13:08:39;25.50;51.60
664;DHT22;314;48.770;9.246;2022-09-09T13:11:36;25.40;51.20
664;DHT22;314;48.770;9.246;2022-09-09T13:14:04;25.20;52.40
664;DHT22;314;48.770;9.246;2022-09-09T13:16:34;25.00;52.00
664;DHT22;314;48.770;9.246;2022-09-09T13:19:08;24.60;51.90
664;DHT22;314;48.770;9.246;2022-09-09T13:21:36;24.40;54.90
664;DHT22;314;48.770;9.246;2022-09-09T13:24:21;24.30;53.80
664;DHT22;314;48.770;9.246;2022-09-09T13:29:27;24.30;53.90
664;DHT22;314;48.770;9.246;2022-09-09T13:31:54;24.40;54.50
664;DHT22;314;48.770;9.246;2022-09-09T13:34:31;24.40;52.40
664;DHT22;314;48.770;9.246;2022-09-09T13:37:20;24.60;53.00
664;DHT22;314;48.770;9.246;2022-09-09T13:39:51;25.00;52.90
664;DHT22;314;48.770;9.246;2022-09-09T13:42:29;25.40;52.90
664;DHT22;314;48.770;9.246;2022-09-09T13:44:58;25.80;50.40
664;DHT22;314;48.770;9.246;2022-09-09T13:47:34;25.90;48.70
664;DHT22;314;48.770;9.246;2022-09-09T13:50:26;26.00;48.80
664;DHT22;314;48.770;9.246;2022-09-09T13:52:58;25.60;46.90
664;DHT22;314;48.770;9.246;2022-09-09T13:55:28;24.90;49.40
664;DHT22;314;48.770;9.246;2022-09-09T14:00:24;24.60;51.60
664;DHT22;314;48.770;9.246;2022-09-09T14:02:50;24.80;51.50
664;DHT22;314;48.770;9.246;2022-09-09T14:05:19;25.20;50.70
664;DHT22;314;48.770;9.246;2022-09-09T14:07:45;25.40;50.30
664;DHT22;314;48.770;9.246;2022-09-09T14:10:12;25.80;49.60
664;DHT22;314;48.770;9.246;2022-09-09T14:12:38;25.90;51.50
664;DHT22;314;48.770;9.246;2022-09-09T14:15:05;26.00;49.80
664;DHT22;314;48.770;9.246;2022-09-09T14:17:31;25.80;50.30
664;DHT22;314;48.770;9.246;2022-09-09T14:19:57;25.60;49.60
664;DHT22;314;48.770;9.246;2022-09-09T14:22:23;25.40;50.50
664;DHT22;314;48.770;9.246;2022-09-09T14:24:49;25.50;50.50
664;DHT22;314;48.770;9.246;2022-09-09T14:27:16;25.70;50.50
664;DHT22;314;48.770;9.246;2022-09-09T14:29:42;25.40;48.40
664;DHT22;314;48.770;9.246;2022-09-09T14:32:10;25.20;50.10
664;DHT22;314;48.770;9.246;2022-09-09T14:34:36;25.30;50.80
664;DHT22;314;48.770;9.246;2022-09-09T14:37:02;25.30;49.10
664;DHT22;314;48.770;9.246;2022-09-09T14:39:28;25.40;50.40
664;DHT22;314;48.770;9.246;2022-09-09T14:41:53;25.30;49.50
664;DHT22;314;48.770;9.246;2022-09-09T14:44:19;25.10;52.50
664;DHT22;314;48.770;9.246;2022-09-09T14:46:45;25.10;48.60
664;DHT22;314;48.770;9.246;2022-09-09T14:49:11;25.10;48.20
664;DHT22;314;48.770;9.246;2022-09-09T14:51:38;24.90;47.50
664;DHT22;314;48.770;9.246;2022-09-09T14:54:04;24.70;50.50
664;DHT22;314;48.770;9.246;2022-09-09T14:56:32;24.60;50.00
664;DHT22;314;48.770;9.246;2022-09-09T14:59:01;24.70;50.10
664;DHT22;314;48.770;9.246;2022-09-09T15:01:29;24.80;50.90
664;DHT22;314;48.770;9.246;2022-09-09T15:03:59;24.90;50.00
664;DHT22;314;48.770;9.246;2022-09-09T15:06:28;24.90;49.90
664;DHT22;314;48.770;9.246;2022-09-09T15:08:55;24.70;49.40
664;DHT22;314;48.770;9.246;2022-09-09T15:11:23;24.60;50.30
664;DHT22;314;48.770;9.246;2022-09-09T15:13:51;24.50;49.40
664;DHT22;314;48.770;9.246;2022-09-09T15:16:22;24.40;49.80
664;DHT22;314;48.770;9.246;2022-09-09T15:18:51;24.30;51.20
664;DHT22;314;48.770;9.246;2022-09-09T15:21:21;24.40;51.20
664;DHT22;314;48.770;9.246;2022-09-09T15:23:47;24.40;50.30
664;DHT22;314;48.770;9.246;2022-09-09T15:26:14;24.20;50.40
664;DHT22;314;48.770;9.246;2022-09-09T15:28:41;24.00;51.70
664;DHT22;314;48.770;9.246;2022-09-09T15:31:12;24.00;50.80
664;DHT22;314;48.770;9.246;2022-09-09T15:33:40;23.90;51.70
664;DHT22;314;48.770;9.246;2022-09-09T15:36:19;23.90;51.90
664;DHT22;314;48.770;9.246;2022-09-09T15:38:46;23.80;50.90
664;DHT22;314;48.770;9.246;2022-09-09T15:41:13;23.80;51.60
664;DHT22;314;48.770;9.246;2022-09-09T15:43:42;23.80;52.10
664;DHT22;314;48.770;9.246;2022-09-09T15:49:26;23.70;53.20
664;DHT22;314;48.770;9.246;2022-09-09T15:51:54;23.70;52.40
664;DHT22;314;48.770;9.246;2022-09-09T15:54:21;23.60;53.00
664;DHT22;314;48.770;9.246;2022-09-09T15:56:56;23.60;52.80
664;DHT22;314;48.770;9.246;2022-09-09T15:59:22;23.40;53.00
664;DHT22;314;48.770;9.246;2022-09-09T16:01:49;23.10;53.30
664;DHT22;314;48.770;9.246;2022-09-09T16:04:18;23.00;53.20
664;DHT22;314;48.770;9.246;2022-09-09T16:06:55;22.90;53.90
664;DHT22;314;48.770;9.246;2022-09-09T16:09:23;22.80;53.70
664;DHT22;314;48.770;9.246;2022-09-09T16:11:48;22.80;53.70
664;DHT22;314;48.770;9.246;2022-09-09T16:14:17;22.70;53.70
664;DHT22;314;48.770;9.246;2022-09-09T16:16:43;22.70;54.50
664;DHT22;314;48.770;9.246;2022-09-09T16:19:12;22.70;53.90
664;DHT22;314;48.770;9.246;2022-09-09T16:21:43;22.80;55.00
664;DHT22;314;48.770;9.246;2022-09-09T16:24:12;22.70;55.50
664;DHT22;314;48.770;9.246;2022-09-09T16:26:40;22.70;55.10
664;DHT22;314;48.770;9.246;2022-09-09T16:29:06;22.70;54.50
664;DHT22;314;48.770;9.246;2022-09-09T16:31:32;22.70;54.30
664;DHT22;314;48.770;9.246;2022-09-09T16:33:59;22.60;54.30
664;DHT22;314;48.770;9.246;2022-09-09T16:36:29;22.60;55.00
664;DHT22;314;48.770;9.246;2022-09-09T16:38:58;22.70;55.40
664;DHT22;314;48.770;9.246;2022-09-09T16:41:25;22.70;54.30
664;DHT22;314;48.770;9.246;2022-09-09T16:44:01;22.70;54.30
664;DHT22;314;48.770;9.246;2022-09-09T16:46:28;22.60;55.00
664;DHT22;314;48.770;9.246;2022-09-09T16:48:57;22.50;55.10
664;DHT22;314;48.770;9.246;2022-09-09T16:51:33;22.40;56.00
664;DHT22;314;48.770;9.246;2022-09-09T16:54:00;22.30;57.70
664;DHT22;314;48.770;9.246;2022-09-09T16:56:30;22.10;58.50
664;DHT22;314;48.770;9.246;2022-09-09T16:58:58;21.90;58.70
664;DHT22;314;48.770;9.246;2022-09-09T17:01:25;21.70;58.70
664;DHT22;314;48.770;9.246;2022-09-09T17:04:00;21.60;59.30
664;DHT22;314;48.770;9.246;2022-09-09T17:06:27;21.50;59.30
664;DHT22;314;48.770;9.246;2022-09-09T17:08:55;21.40;58.90
664;DHT22;314;48.770;9.246;2022-09-09T17:11:22;21.40;59.20
664;DHT22;314;48.770;9.246;2022-09-09T17:13:49;21.30;58.40
664;DHT22;314;48.770;9.246;2022-09-09T17:16:17;21.10;59.10
664;DHT22;314;48.770;9.246;2022-09-09T17:18:43;21.00;59.60
664;DHT22;314;48.770;9.246;2022-09-09T17:21:13;21.00;59.70
664;DHT22;314;48.770;9.246;2022-09-09T17:23:40;21.00;59.60
664;DHT22;314;48.770;9.246;2022-09-09T17:26:08;20.90;60.10
664;DHT22;314;48.770;9.246;2022-09-09T17:28:36;20.90;60.60
664;DHT22;314;48.770;9.246;2022-09-09T17:31:05;20.80;60.20
664;DHT22;314;48.770;9.246;2022-09-09T17:33:37;20.70;61.20
664;DHT22;314;48.770;9.246;2022-09-09T17:36:09;20.70;61.30
664;DHT22;314;48.770;9.246;2022-09-09T17:38:37;20.60;62.10
664;DHT22;314;48.770;9.246;2022-09-09T17:41:09;20.50;62.40
664;DHT22;314;48.770;9.246;2022-09-09T17:43:35;20.30;63.30
664;DHT22;314;48.770;9.246;2022-09-09T17:48:34;20.20;64.40
664;DHT22;314;48.770;9.246;2022-09-09T17:51:09;20.20;64.50
664;DHT22;314;48.770;9.246;2022-09-09T17:53:42;20.10;65.20
664;DHT22;314;48.770;9.246;2022-09-09T17:56:10;20.10;65.60
664;DHT22;314;48.770;9.246;2022-09-09T17:58:36;20.00;66.30
664;DHT22;314;48.770;9.246;2022-09-09T18:01:09;20.00;66.60
664;DHT22;314;48.770;9.246;2022-09-09T18:03:41;20.00;67.10
664;DHT22;314;48.770;9.246;2022-09-09T18:06:13;19.90;67.40
664;DHT22;314;48.770;9.246;2022-09-09T18:08:42;19.90;67.80
664;DHT22;314;48.770;9.246;2022-09-09T18:11:08;19.80;69.50
664;DHT22;314;48.770;9.246;2022-09-09T18:13:34;19.80;69.90
664;DHT22;314;48.770;9.246;2022-09-09T18:16:01;19.70;70.50
664;DHT22;314;48.770;9.246;2022-09-09T18:18:27;19.70;70.90
664;DHT22;314;48.770;9.246;2022-09-09T18:21:05;19.70;70.30
664;DHT22;314;48.770;9.246;2022-09-09T18:23:35;19.60;71.70
664;DHT22;314;48.770;9.246;2022-09-09T18:26:07;19.60;71.70
664;DHT22;314;48.770;9.246;2022-09-09T18:28:35;19.50;71.30
664;DHT22;314;48.770;9.246;2022-09-09T18:31:07;19.50;72.00
664;DHT22;314;48.770;9.246;2022-09-09T18:33:36;19.50;71.40
664;DHT22;314;48.770;9.246;2022-09-09T18:36:11;19.50;72.00
664;DHT22;314;48.770;9.246;2022-09-09T18:38:38;19.50;72.60
664;DHT22;314;48.770;9.246;2022-09-09T18:43:47;19.50;72.40
664;DHT22;314;48.770;9.246;2022-09-09T18:46:14;19.50;72.40
664;DHT22;314;48.770;9.246;2022-09-09T18:48:41;19.50;73.10
664;DHT22;314;48.770;9.246;2022-09-09T18:51:08;19.50;73.80
664;DHT22;314;48.770;9.246;2022-09-09T18:53:35;19.50;73.90
664;DHT22;314;48.770;9.246;2022-09-09T18:56:07;19.50;74.40
664;DHT22;314;48.770;9.246;2022-09-09T18:58:33;19.50;73.80
664;DHT22;314;48.770;9.246;2022-09-09T19:01:01;19.40;73.70
664;DHT22;314;48.770;9.246;2022-09-09T19:03:29;19.40;74.20
664;DHT22;314;48.770;9.246;2022-09-09T19:06:12;19.40;74.60
664;DHT22;314;48.770;9.246;2022-09-09T19:08:40;19.40;74.40